createdAt,value
2023-03-17T00:01:49.881Z,24.5
2023-03-17T00:07:43.881Z,24.7
2023-03-17T00:13:20.135Z,24.3
2023-03-17T00:19:13.104Z,23.9
2023-03-17T00:25:05.845Z,23.8
2023-03-17T00:30:43.156Z,23.5
2023-03-17T00:36:04.231Z,23.4
2023-03-17T00:41:42.025Z,23.3
2023-03-17T00:47:34.486Z,23.5
2023-03-17T00:53:26.338Z,23.9
2023-03-17T00:59:04.404Z,24.3
2023-03-17T01:05:06.130Z,23.9
2023-03-17T01:10:43.268Z,23.5
2023-03-17T01:16:20.989Z,23.4
2023-03-17T01:22:13.675Z,23.1
2023-03-17T01:28:05.305Z,23
2023-03-17T01:33:43.358Z,22.8
2023-03-17T01:39:20.867Z,23.1
2023-03-17T01:44:58.296Z,23.4
2023-03-17T01:50:52.187Z,24
2023-03-17T01:56:44.518Z,23.7
2023-03-17T02:01:34.398Z,23.3
2023-03-17T02:07:40.565Z,23.1
2023-03-17T02:13:33.305Z,22.9
2023-03-17T02:19:25.399Z,22.7
2023-03-17T02:24:48.005Z,22.6
2023-03-17T02:30:25.105Z,22.6
2023-03-17T02:36:03.102Z,23
2023-03-17T02:41:41.132Z,23.6
2023-03-17T02:47:17.973Z,23.5
2023-03-17T02:52:53.622Z,23.1
2023-03-17T02:58:31.722Z,22.9
2023-03-17T03:04:24.966Z,22.7
2023-03-17T03:10:17.210Z,22.5
2023-03-17T03:16:11.103Z,22.4
2023-03-17T03:22:04.174Z,22.4
2023-03-17T03:27:55.077Z,22.8
2023-03-17T03:33:33.841Z,23.1
2023-03-17T03:39:26.216Z,23.1
2023-03-17T03:45:00.886Z,23.3
2023-03-17T03:50:38.666Z,23.6
2023-03-17T03:56:30.512Z,23.3
2023-03-17T04:02:09.522Z,22.9
2023-03-17T04:07:46.923Z,22.6
2023-03-17T04:13:38.763Z,22.4
2023-03-17T04:19:31.483Z,22.4
2023-03-17T04:25:24.800Z,22.7
2023-03-17T04:31:19.863Z,23.3
2023-03-17T04:36:58.003Z,23.3
2023-03-17T04:42:54.103Z,22.9
2023-03-17T04:48:31.827Z,22.6
2023-03-17T04:54:12.587Z,22.4
2023-03-17T05:00:19.687Z,22.2
2023-03-17T05:06:40.222Z,22.4
2023-03-17T05:12:18.784Z,23
2023-03-17T05:18:11.793Z,23.5
2023-03-17T05:24:04.198Z,23.1
2023-03-17T05:29:56.239Z,22.8
2023-03-17T05:35:50.796Z,22.5
2023-03-17T05:41:44.706Z,22.3
2023-03-17T05:47:37.653Z,22.2
2023-03-17T05:53:32.740Z,22.5
2023-03-17T05:59:09.679Z,23.2
2023-03-17T06:05:02.624Z,23.3
2023-03-17T06:10:55.016Z,23
2023-03-17T06:16:47.613Z,22.6
2023-03-17T06:22:44.089Z,22.4
2023-03-17T06:28:42.054Z,22.1
2023-03-17T06:34:48.671Z,22.3
2023-03-17T06:40:41.200Z,22.8
2023-03-17T06:46:36.617Z,23.2
2023-03-17T06:52:28.743Z,23.1
2023-03-17T06:58:40.527Z,23.1
2023-03-17T07:04:33.225Z,23.4
2023-03-17T07:10:25.482Z,23.1
2023-03-17T07:16:18.072Z,22.7
2023-03-17T07:22:11.605Z,22.4
2023-03-17T07:28:04.480Z,22.3
2023-03-17T07:33:26.210Z,22.3
2023-03-17T07:39:04.431Z,22.6
2023-03-17T07:44:56.872Z,23.3
2023-03-17T07:51:03.132Z,23.2
2023-03-17T07:56:59.603Z,22.8
2023-03-17T08:03:03.345Z,22.4
2023-03-17T08:09:00.837Z,22.3
2023-03-17T08:14:54.217Z,22.1
2023-03-17T08:20:48.583Z,22.4
2023-03-17T08:26:41.851Z,23
2023-03-17T08:32:39.082Z,23.3
2023-03-17T08:38:18.787Z,22.9
2023-03-17T08:44:11.580Z,22.5
2023-03-17T08:49:49.533Z,22.4
2023-03-17T08:55:27.232Z,22.1
2023-03-17T09:01:20.375Z,22.1
2023-03-17T09:07:34.772Z,22.6
2023-03-17T09:13:29.248Z,23.3
2023-03-17T09:19:18.525Z,23.1
2023-03-17T09:25:12.097Z,22.7
2023-03-17T09:31:06.445Z,22.4
2023-03-17T09:36:32.065Z,22.2
2023-03-17T09:42:26.260Z,22
2023-03-17T09:48:19.648Z,22.3
2023-03-17T09:54:13.801Z,22.8
2023-03-17T10:00:06.326Z,23.3
2023-03-17T10:05:59.797Z,23
2023-03-17T10:12:05.225Z,22.5
2023-03-17T10:17:59.315Z,22.3
2023-03-17T10:23:21.637Z,22.1
2023-03-17T10:29:17.373Z,22.3
2023-03-17T10:35:11.287Z,22.8
2023-03-17T10:41:14.691Z,23.4
2023-03-17T10:47:08.122Z,23
2023-03-17T10:53:01.682Z,22.6
2023-03-17T10:58:54.699Z,22.3
2023-03-17T11:04:48.414Z,22.2
2023-03-17T11:10:42.152Z,22.3
2023-03-17T11:16:34.156Z,22.8
2023-03-17T11:22:26.736Z,23.3
2023-03-17T11:27:49.576Z,22.9
2023-03-17T11:33:42.624Z,22.8
2023-03-17T11:39:35.349Z,22.6
2023-03-17T11:45:28.329Z,22.4
2023-03-17T11:51:21.537Z,22.8
2023-03-17T11:57:14.164Z,23.3
2023-03-17T12:03:06.852Z,23
2023-03-17T12:08:59.992Z,22.8
2023-03-17T12:14:52.747Z,22.6
2023-03-17T12:20:48.032Z,23.3
2023-03-17T12:26:40.960Z,23.3
2023-03-17T12:32:18.038Z,22.9
2023-03-17T12:38:15.389Z,22.7
2023-03-17T12:44:08.726Z,22.9
2023-03-17T12:50:02.863Z,23.4
2023-03-17T12:55:55.244Z,23.1
2023-03-17T13:01:48.391Z,22.9
2023-03-17T13:07:45.987Z,22.7
2023-03-17T13:13:39.377Z,23.2
2023-03-17T13:19:16.691Z,23.4
2023-03-17T13:25:12.045Z,23.1
2023-03-17T13:31:10.199Z,22.8
2023-03-17T13:37:03.713Z,22.8
2023-03-17T13:43:23.568Z,23.5
2023-03-17T13:49:20.831Z,23.3
2023-03-17T13:55:18.849Z,23
2023-03-17T14:01:13.046Z,22.9
2023-03-17T14:07:07.303Z,22.9
2023-03-17T14:12:59.911Z,23.5
2023-03-17T14:18:46.965Z,23.3
2023-03-17T14:24:44.673Z,23
2023-03-17T14:30:39.753Z,22.8
2023-03-17T14:36:18.032Z,22.7
2023-03-17T14:42:11.113Z,23.2
2023-03-17T14:48:04.015Z,23.4
2023-03-17T14:53:56.213Z,23.1
2023-03-17T14:59:50.568Z,22.9
2023-03-17T15:05:45.054Z,22.7
2023-03-17T15:11:40.261Z,22.7
2023-03-17T15:17:33.697Z,23.4
2023-03-17T15:23:26.942Z,23.2
2023-03-17T15:29:19.836Z,22.9
2023-03-17T15:35:20.973Z,22.8
2023-03-17T15:41:20.438Z,22.6
2023-03-17T15:47:13.110Z,22.5
2023-03-17T15:53:06.429Z,22.4
2023-03-17T15:59:01.750Z,22.3
2023-03-17T16:04:53.721Z,22.2
2023-03-17T16:10:47.237Z,22.4
2023-03-17T16:16:55.253Z,23.1
2023-03-17T16:22:48.137Z,23.9
2023-03-17T16:28:52.302Z,24.6
2023-03-17T16:34:29.066Z,25.1
2023-03-17T16:40:21.665Z,25.6
2023-03-17T16:46:26.268Z,26.1
2023-03-17T16:52:18.836Z,26.6
2023-03-17T16:57:57.622Z,26.8
2023-03-17T17:03:20.441Z,27
2023-03-17T17:08:57.108Z,27.2
2023-03-17T17:14:34.025Z,27.5
2023-03-17T17:25:49.595Z,27.9
2023-03-17T17:31:12.143Z,28.1
2023-03-17T17:37:05.646Z,28.2
2023-03-17T17:42:58.927Z,28.4
2023-03-17T17:48:38.773Z,28.7
2023-03-17T17:54:32.112Z,28.8
2023-03-17T18:00:08.449Z,28.9
2023-03-17T18:05:30.167Z,29.1
2023-03-17T18:11:08.625Z,29.2
2023-03-17T18:16:45.126Z,29.3
2023-03-17T18:22:37.021Z,29.4
2023-03-17T18:28:30.915Z,29.6
2023-03-17T18:34:09.113Z,29.7
2023-03-17T18:39:50.728Z,29.8
2023-03-17T18:45:37.819Z,29.9
2023-03-17T18:50:59.967Z,30
2023-03-17T18:56:52.411Z,30.1
2023-03-17T19:02:46.598Z,30.1
2023-03-17T19:08:09.345Z,30.1
2023-03-17T19:14:01.556Z,30.1
2023-03-17T19:19:53.876Z,30.1
2023-03-17T19:25:30.190Z,30.1
2023-03-17T19:31:08.225Z,30.1
2023-03-17T19:37:03.472Z,30
2023-03-17T19:42:24.639Z,29.9
2023-03-17T19:47:57.108Z,29.9
2023-03-17T19:53:20.054Z,29.9
2023-03-17T19:58:56.688Z,29.9
2023-03-17T20:04:49.951Z,30.1
2023-03-17T20:10:43.121Z,30.3
2023-03-17T20:16:05.300Z,30.5
2023-03-17T20:21:29.222Z,30.8
2023-03-17T20:26:51.954Z,30.9
2023-03-17T20:32:29.239Z,30.9
2023-03-17T20:38:24.740Z,31
2023-03-17T20:44:17.175Z,30.8
2023-03-17T20:50:10.035Z,30.7
2023-03-17T20:56:05.415Z,30.6
2023-03-17T21:01:58.806Z,30.4
2023-03-17T21:07:51.546Z,30.3
2023-03-17T21:13:44.894Z,30.1
2023-03-17T21:19:26.089Z,29.9
2023-03-17T21:25:03.699Z,29.7
2023-03-17T21:30:25.012Z,29.4
2023-03-17T21:36:18.488Z,29.3
2023-03-17T21:42:13.857Z,29.1
2023-03-17T21:48:06.830Z,28.8
2023-03-17T21:54:00.421Z,28.7
2023-03-17T21:59:38.149Z,28.2
2023-03-17T22:05:08.272Z,27.6
2023-03-17T22:11:01.805Z,27.3
2023-03-17T22:16:09.041Z,27
2023-03-17T22:21:49.699Z,26.8
2023-03-17T22:27:43.292Z,26.6
2023-03-17T22:33:36.647Z,26.4
2023-03-17T22:39:31.024Z,26.3
2023-03-17T22:45:11.397Z,25.9
2023-03-17T22:50:49.417Z,25.9
2023-03-17T22:56:26.272Z,25.6
2023-03-17T23:02:19.540Z,25.6
2023-03-17T23:08:06.294Z,25.4
2023-03-17T23:13:58.942Z,25.3
2023-03-17T23:19:53.166Z,25.1
2023-03-17T23:25:44.889Z,24.9
2023-03-17T23:31:38.776Z,25.2
2023-03-17T23:37:16.939Z,25.5
2023-03-17T23:42:54.532Z,25.4
2023-03-17T23:48:47.750Z,25.1
2023-03-17T23:54:10.524Z,24.8
